Portada
METAR-TAF:

METAR-TAF

Aeroports :

Aeroport Internacional de Singapur-Changi

Singapur, Singapur

latitud: 01-22N, longitud: 103-59E, altitud: 5 m

Observació

L'informe es va fer fa 29 minuts, a les 08:00 UTC
Vent 5 kt del Nord, variant entre Oest/Nord-Oest i Est/Sud-Est
Temperatura 32°C
Humitat 59%
Pressió 1008 hPa
Visibilitat 10 km o més
Escasses núvols a una alçada de 2200 ft
Cel ennuvolat a una alçada de 16000 ft

METAR: WSSS 070800Z 01005KT 300V110 9999 FEW022 BKN160 32/23 Q1008 NOSIG

Hora: 16:29 (08:29 UTC)

Pronòstic

L'informe es va fer fa 29 minuts, a les 08:00 UTC
Pronòstic vàlid del 07 a les 08 UTC al 08 a les 12 UTC
Vent 7 kt del Nord
Visibilitat 10 km o més
Escasses núvols a una alçada de 1500 ft
Núvols disperses a una alçada de 2000 ft

TAF: WSSS 070800Z 0708/0812 01007KT 9999 FEW015 SCT020

Observacions i pronòstics meteorològics de més de 4000 aeroports (METAR i TAF).

Les estacions disponibles són els punts grocs i vermells al mapa.

Posi el ratolí al punt desitjat per veure el nom de l'estació.

Feu clic per veure les observacions i els pronòstics meteorològics.

Per canviar el mapa: feu clic els botons verds amb una creu de color negre per apropar; al botó verd amb un guió per allunyar la imatge; o en les fletxes verdes per a mapes adjacents.


METAR-TAF: